Archiv-/Tagesdaten

--Timestamp---	Temp	Chill	HIndex	Humid	Dewpt	 Wind 	HiWind	WindDir	Rain 	Barom	Solar	 ET  	 UV 
--------------	----	-----	------	-----	-----	------	------	-------	-----	-----	-----	-----	----
20110605 00:00	17.1	17.1	17.1	76	12.8	0	0	-100000	0.0	1009.3	0	0.025	0.0
20110605 00:05	16.9	16.9	16.9	76	12.6	0	0	-100000	0.0	1009.1	0	0.000	0.0
20110605 00:10	16.8	16.8	16.8	77	12.8	0	0	-100000	0.0	1009.1	0	0.000	0.0
20110605 00:15	16.7	16.7	16.7	78	12.9	0	0	-100000	0.0	1009.1	0	0.000	0.0
20110605 00:20	16.6	16.6	16.6	78	12.8	0	0	-100000	0.0	1009.0	0	0.000	0.0
20110605 00:25	16.5	16.5	16.5	78	12.6	0	0	-100000	0.0	1009.1	0	0.000	0.0
20110605 00:30	16.4	16.4	16.4	78	12.5	0	0	-100000	0.0	1009.0	0	0.000	0.0
20110605 00:35	16.3	16.3	16.3	79	12.6	0	0	-100000	0.0	1009.2	0	0.000	0.0
20110605 00:40	16.2	16.2	16.2	79	12.6	0	0	-100000	0.0	1009.2	0	0.000	0.0
20110605 00:45	16.1	16.1	16.1	79	12.5	0	0	-100000	0.0	1009.2	0	0.000	0.0
20110605 00:50	16.1	16.1	16.1	79	12.4	0	2	202	0.0	1009.2	0	0.000	0.0
20110605 00:55	16.0	16.0	16.0	79	12.4	2	5	202	0.0	1009.3	0	0.000	0.0
20110605 01:00	15.9	15.9	15.9	80	12.5	3	6	202	0.0	1009.3	0	0.025	0.0
20110605 01:05	15.8	15.8	15.8	80	12.4	2	6	202	0.0	1009.2	0	0.000	0.0
20110605 01:10	15.8	15.8	15.8	81	12.5	3	6	202	0.0	1009.3	0	0.000	0.0
20110605 01:15	15.7	15.7	15.7	81	12.5	0	2	202	0.0	1009.1	0	0.000	0.0
20110605 01:20	15.7	15.7	15.7	81	12.5	2	6	202	0.0	1009.2	0	0.000	0.0
20110605 01:25	15.7	15.7	15.7	81	12.5	0	2	202	0.0	1009.2	0	0.000	0.0
20110605 01:30	15.7	15.7	15.7	81	12.4	0	2	202	0.0	1009.2	0	0.000	0.0
20110605 01:35	15.6	15.6	15.6	81	12.3	0	0	-100000	0.0	1009.0	0	0.000	0.0
20110605 01:40	15.5	15.5	15.5	82	12.4	0	0	-100000	0.0	1009.0	0	0.000	0.0
20110605 01:45	15.3	15.3	15.3	82	12.3	0	0	-100000	0.0	1008.9	0	0.000	0.0
20110605 01:50	15.2	15.2	15.2	82	12.1	0	0	-100000	0.0	1008.9	0	0.000	0.0
20110605 01:55	15.0	15.0	15.0	83	12.1	0	0	-100000	0.0	1008.8	0	0.000	0.0
20110605 02:00	15.0	15.0	15.0	83	12.1	0	2	202	0.0	1008.7	0	0.025	0.0
20110605 02:05	15.0	15.0	15.0	84	12.3	0	3	202	0.0	1008.6	0	0.000	0.0
20110605 02:10	15.0	15.0	15.0	84	12.3	0	2	202	0.0	1008.5	1779	0.000	0.0
20110605 02:15	15.0	15.0	15.0	84	12.3	0	0	-100000	0.0	1008.4	-100000	0.000	0.0
20110605 02:20	15.0	15.0	15.0	86	12.7	0	2	202	0.0	1008.4	-100000	0.000	0.0
20110605 02:25	15.0	15.0	15.0	84	12.3	0	5	202	0.0	1008.4	0	0.000	0.0
20110605 02:30	14.9	14.9	14.9	84	12.3	0	3	202	0.0	1008.3	0	0.000	0.0
20110605 02:35	14.8	14.8	14.8	84	12.2	0	2	202	0.0	1008.3	0	0.000	0.0
20110605 02:40	14.8	14.8	14.8	84	12.1	0	2	202	0.0	1008.3	0	0.000	0.0
20110605 02:45	14.7	14.7	14.7	84	12.0	0	2	202	0.0	1008.3	0	0.000	0.0
20110605 02:50	14.7	14.7	14.7	84	12.0	0	3	202	0.0	1008.3	0	0.000	0.0
20110605 02:55	14.7	14.7	14.7	84	12.0	0	2	202	0.0	1008.4	0	0.000	0.0
20110605 03:00	14.6	14.6	14.6	84	11.9	3	6	202	0.0	1008.4	0	0.025	0.0
20110605 03:05	14.6	14.6	14.6	84	11.9	2	5	202	0.0	1008.4	0	0.000	0.0
20110605 03:10	14.5	14.5	14.5	85	12.0	2	5	202	0.0	1008.4	0	0.000	0.0
20110605 03:15	14.4	14.4	14.4	85	11.9	2	5	202	0.0	1008.4	0	0.000	0.0
20110605 03:20	14.3	14.3	14.3	85	11.8	0	3	202	0.0	1008.5	0	0.000	0.0
20110605 03:25	14.3	14.3	14.3	85	11.8	0	2	202	0.0	1008.4	0	0.000	0.0
20110605 03:30	14.3	14.3	14.3	85	11.8	0	3	202	0.0	1008.3	0	0.000	0.0
20110605 03:35	14.3	14.3	14.3	85	11.8	2	5	202	0.0	1008.3	0	0.000	0.0
20110605 03:40	14.2	14.2	14.2	85	11.7	0	2	202	0.0	1008.3	0	0.000	0.0
20110605 03:45	14.2	14.2	14.2	85	11.7	0	3	202	0.0	1008.3	0	0.000	0.0
20110605 03:50	14.2	14.2	14.2	85	11.7	3	8	202	0.0	1008.3	0	0.000	0.0
20110605 03:55	14.2	14.2	14.2	85	11.7	3	6	202	0.0	1008.3	0	0.000	0.0
20110605 04:00	14.2	14.2	14.2	85	11.7	3	6	202	0.0	1008.2	0	0.025	0.0
20110605 04:05	14.2	14.2	14.2	85	11.7	2	5	202	0.0	1008.3	0	0.000	0.0
20110605 04:10	14.1	14.1	14.1	85	11.6	2	5	202	0.0	1008.3	0	0.000	0.0
20110605 04:15	14.0	14.0	14.0	86	11.7	0	3	202	0.0	1008.1	0	0.000	0.0
20110605 04:20	13.9	13.9	13.9	86	11.6	5	8	202	0.0	1008.2	0	0.000	0.0
20110605 04:25	13.8	13.8	13.8	86	11.5	5	8	202	0.0	1008.2	0	0.000	0.0
20110605 04:30	13.7	13.7	13.7	86	11.4	3	6	202	0.0	1008.1	0	0.000	0.0
20110605 04:35	13.5	13.5	13.5	86	11.2	5	8	202	0.0	1008.3	0	0.000	0.0
20110605 04:40	13.4	13.4	13.4	87	11.3	3	6	202	0.0	1008.3	0	0.000	0.0
20110605 04:45	13.3	13.3	13.3	87	11.2	3	8	180	0.0	1008.4	0	0.000	0.0
20110605 04:50	13.3	13.3	13.3	87	11.2	3	6	180	0.0	1008.3	0	0.000	0.0
20110605 04:55	13.3	13.3	13.3	87	11.2	3	6	180	0.0	1008.4	0	0.000	0.0
20110605 05:00	13.3	13.3	13.3	87	11.2	3	8	202	0.0	1008.4	0	0.025	0.0
20110605 05:05	13.3	13.3	13.3	88	11.3	5	8	202	0.0	1008.2	0	0.000	0.0
20110605 05:10	13.3	13.3	13.3	87	11.2	5	10	202	0.0	1008.3	0	0.000	0.0
20110605 05:15	13.4	13.4	13.4	87	11.3	5	10	202	0.0	1008.3	0	0.000	0.0
20110605 05:20	13.3	13.3	13.3	87	11.2	3	6	202	0.0	1008.4	0	0.000	0.0
20110605 05:25	13.3	13.3	13.3	87	11.2	5	8	202	0.0	1008.4	4	0.000	0.0
20110605 05:30	13.2	13.2	13.2	87	11.1	5	8	202	0.0	1008.5	7	0.000	0.0
20110605 05:35	13.1	13.1	13.1	87	11.0	2	5	202	0.0	1008.6	8	0.000	0.0
20110605 05:40	13.0	13.0	13.0	87	10.9	0	5	202	0.0	1008.7	9	0.000	0.0
20110605 05:45	12.9	12.9	12.9	87	10.8	2	6	202	0.0	1008.8	11	0.000	0.0
20110605 05:50	12.9	12.9	12.9	88	11.0	3	6	202	0.0	1008.8	15	0.000	0.0
20110605 05:55	12.9	12.9	12.9	88	11.0	2	5	202	0.0	1008.9	22	0.000	0.0
20110605 06:00	13.0	13.0	13.0	88	11.1	2	5	202	0.0	1009.0	37	0.000	0.0
20110605 06:05	13.1	13.1	13.1	88	11.2	0	3	202	0.0	1009.0	45	0.000	0.0
20110605 06:10	13.2	13.2	13.2	88	11.3	2	5	202	0.0	1009.0	-100000	0.000	0.0
20110605 06:15	13.3	13.3	13.3	88	11.4	2	5	202	0.0	1009.0	-100000	0.000	0.0
20110605 06:20	13.6	13.6	13.6	87	11.4	2	6	202	0.0	1009.1	66	0.000	0.0
20110605 06:25	13.8	13.8	13.8	87	11.6	5	8	202	0.0	1009.1	62	0.000	0.0
20110605 06:30	14.0	14.0	14.0	87	11.9	5	8	202	0.0	1009.1	69	0.000	0.0
20110605 06:35	14.2	14.2	14.2	87	12.0	3	6	202	0.0	1008.9	69	0.000	0.0
20110605 06:40	14.3	14.3	14.3	87	12.2	5	6	202	0.0	1008.9	77	0.000	0.0
20110605 06:45	14.4	14.4	14.4	87	12.3	3	8	202	0.0	1008.9	100	0.000	0.0
20110605 06:50	14.7	14.7	14.7	87	12.5	2	6	202	0.0	1008.8	160	0.000	0.0
20110605 06:55	15.0	15.0	15.0	86	12.7	2	6	202	0.0	1008.8	200	0.000	0.0
20110605 07:00	15.3	15.3	15.3	86	12.9	2	6	202	0.0	1008.8	214	0.051	0.4
20110605 07:05	15.7	15.7	15.7	86	13.4	3	10	202	0.0	1008.9	147	0.000	0.5
20110605 07:10	16.1	16.1	16.1	83	13.2	6	10	225	0.0	1008.9	135	0.000	0.6
20110605 07:15	16.4	16.4	16.4	82	13.3	6	11	225	0.0	1008.9	266	0.000	0.7
20110605 07:20	16.8	16.8	16.8	80	13.4	10	16	225	0.0	1008.7	300	0.000	0.7
20110605 07:25	17.2	17.2	17.2	78	13.3	8	16	248	0.0	1008.7	320	0.000	0.7
20110605 07:30	17.5	17.5	17.5	76	13.2	8	16	270	0.0	1008.7	246	0.000	0.8
20110605 07:35	17.6	17.6	17.6	75	13.1	11	19	225	0.0	1008.6	148	0.000	0.8
20110605 07:40	17.6	17.6	17.6	75	13.1	10	19	225	0.0	1008.5	163	0.000	0.8
20110605 07:45	17.6	17.6	17.6	76	13.3	6	16	248	0.0	1008.6	193	0.000	0.9
20110605 07:50	17.6	17.6	17.6	76	13.3	6	14	248	0.0	1008.6	202	0.000	1.0
20110605 07:55	17.7	17.7	17.7	76	13.4	6	11	248	0.0	1008.5	229	0.000	1.1
20110605 08:00	17.8	17.8	17.8	76	13.5	6	11	248	0.0	1008.5	253	0.152	1.2
20110605 08:05	17.9	17.9	17.9	76	13.6	5	10	270	0.0	1008.7	110	0.000	1.1
20110605 08:10	17.9	17.9	17.9	76	13.6	3	8	248	0.0	1008.6	139	0.000	1.2
20110605 08:15	18.0	18.0	18.0	76	13.7	3	6	248	0.0	1008.7	236	0.000	1.4
20110605 08:20	18.2	18.2	18.2	75	13.7	6	10	248	0.0	1008.6	393	0.000	1.6
20110605 08:25	18.3	18.3	18.3	75	13.8	6	11	248	0.0	1008.7	237	0.000	1.4
20110605 08:30	18.3	18.3	18.3	75	13.8	3	8	225	0.0	1008.6	153	0.000	1.6
20110605 08:35	18.3	18.3	18.3	76	14.0	5	11	225	0.0	1008.7	331	0.000	1.9
20110605 08:40	18.7	18.7	18.7	76	14.3	3	8	225	0.0	1008.7	435	0.000	2.1
20110605 08:45	19.1	19.1	19.1	74	14.3	6	16	248	0.0	1008.7	451	0.000	2.2
20110605 08:50	19.4	19.4	19.4	73	14.4	10	18	270	0.0	1008.6	455	0.000	2.4
20110605 08:55	19.7	19.7	19.7	71	14.3	13	19	225	0.0	1008.7	476	0.000	2.6
20110605 09:00	19.8	19.8	19.8	71	14.4	8	16	270	0.0	1008.6	431	0.203	2.6
20110605 09:05	19.9	19.9	19.9	70	14.3	10	19	248	0.0	1008.7	489	0.000	2.9
20110605 09:10	20.1	20.1	20.1	70	14.4	8	16	248	0.0	1008.7	497	0.000	3.0
20110605 09:15	20.3	20.3	20.3	70	14.6	6	18	248	0.0	1008.7	505	0.000	3.1
20110605 09:20	20.3	20.3	20.3	69	14.5	10	19	248	0.0	1008.7	509	0.000	3.2
20110605 09:25	20.5	20.5	20.5	69	14.6	6	11	248	0.0	1008.7	523	0.000	3.4
20110605 09:30	20.7	20.7	20.7	69	14.8	6	14	248	0.0	1008.6	528	0.000	3.5
20110605 09:35	20.7	20.7	20.7	68	14.5	8	16	248	0.0	1008.7	535	0.000	3.7
20110605 09:40	20.7	20.7	20.7	69	14.8	6	14	225	0.0	1008.6	542	0.000	3.8
20110605 09:45	20.9	20.9	20.9	69	15.0	6	14	248	0.0	1008.5	504	0.000	3.7
20110605 09:50	21.0	21.0	21.0	69	15.1	6	13	270	0.0	1008.4	510	0.000	3.8
20110605 09:55	20.9	20.9	20.9	69	15.0	6	11	270	0.0	1008.4	282	0.000	3.4
20110605 10:00	20.8	20.8	20.8	70	15.1	5	10	248	0.0	1008.4	528	0.330	4.1
20110605 10:05	20.8	20.8	20.8	70	15.2	5	10	270	0.0	1008.7	322	0.000	3.6
20110605 10:10	20.4	20.4	20.4	74	15.6	5	10	270	0.0	1008.6	384	0.000	3.8
20110605 10:15	19.7	19.7	19.7	76	15.3	6	11	248	0.0	1008.8	377	0.000	3.8
20110605 10:20	19.1	19.1	19.1	78	15.2	5	10	248	0.0	1008.9	326	0.000	3.6
20110605 10:25	18.8	18.8	18.8	79	15.1	3	8	248	0.0	1008.9	350	0.000	3.7
20110605 10:30	18.8	18.8	18.8	79	15.1	3	8	248	0.0	1008.9	344	0.000	3.7
20110605 10:35	18.8	18.8	18.8	79	15.1	2	6	270	0.0	1008.8	356	0.000	3.8
20110605 10:40	18.9	18.9	18.9	80	15.4	3	6	270	0.0	1008.8	334	0.000	3.7
20110605 10:45	19.1	19.1	19.1	81	15.7	3	10	225	0.0	1008.8	327	0.000	3.6
20110605 10:50	19.2	19.2	19.2	79	15.5	3	6	225	0.0	1008.7	353	0.000	3.8
20110605 10:55	19.3	19.3	19.3	79	15.6	6	10	225	0.0	1008.7	403	0.000	4.2
20110605 11:00	19.6	19.6	19.6	78	15.7	5	11	225	0.0	1008.5	436	0.229	4.7
20110605 11:05	19.9	19.9	19.9	76	15.5	5	10	225	0.0	1008.8	468	0.000	5.6
20110605 11:10	20.3	20.3	20.3	76	15.9	2	8	225	0.0	1008.7	910	0.000	7.5
20110605 11:15	20.8	20.8	20.8	76	16.4	2	6	270	0.0	1008.4	820	0.000	7.2
20110605 11:20	21.3	21.3	21.3	71	15.8	3	10	180	0.0	1008.4	786	0.000	7.1
20110605 11:25	21.7	21.7	21.7	70	15.9	5	8	180	0.0	1008.3	780	0.000	7.2
20110605 11:30	22.0	22.0	22.0	69	16.0	2	6	158	0.0	1008.3	787	0.000	7.2
20110605 11:35	22.3	22.3	22.3	67	15.8	2	8	225	0.0	1008.3	826	0.000	7.6
20110605 11:40	22.3	22.3	22.3	66	15.6	3	8	248	0.0	1008.3	764	0.000	7.7
20110605 11:45	22.4	22.4	22.4	66	15.8	3	13	292	0.0	1008.3	803	0.000	7.7
20110605 11:50	22.6	22.6	22.6	65	15.7	5	11	248	0.0	1008.2	798	0.000	7.8
20110605 11:55	22.9	22.9	22.9	65	16.0	3	8	270	0.0	1008.1	831	0.000	8.2
20110605 12:00	23.2	23.2	23.2	64	16.0	2	6	270	0.0	1008.1	834	0.483	7.9
20110605 12:05	23.5	23.5	23.5	61	15.5	3	10	270	0.0	1008.3	888	0.000	8.3
20110605 12:10	23.7	23.7	23.7	60	15.4	5	10	270	0.0	1008.1	944	0.000	8.6
20110605 12:15	23.9	23.9	25.1	63	16.4	0	5	270	0.0	1008.0	753	0.000	7.9
20110605 12:20	24.2	24.2	25.4	62	16.5	2	8	270	0.0	1008.0	883	0.000	8.7
20110605 12:25	24.4	24.4	25.6	60	16.2	3	10	270	0.0	1008.0	872	0.000	8.8
20110605 12:30	24.7	24.7	25.7	58	15.8	5	16	270	0.0	1008.0	879	0.000	8.6
20110605 12:35	24.7	24.7	25.7	57	15.6	5	11	270	0.0	1008.0	754	0.000	7.8
20110605 12:40	24.7	24.7	25.7	62	16.9	3	6	315	0.0	1007.8	617	0.000	8.1
20110605 12:45	24.7	24.7	25.7	61	16.6	3	8	22	0.0	1007.8	861	0.000	8.9
20110605 12:50	24.6	24.6	25.7	61	16.6	2	6	22	0.0	1007.7	862	0.000	8.9
20110605 12:55	24.6	24.6	25.6	59	16.0	3	6	22	0.0	1007.7	873	0.000	9.0
20110605 13:00	24.7	24.7	25.8	58	15.9	3	11	22	0.0	1007.6	874	0.533	9.1
20110605 13:05	24.8	24.8	25.8	57	15.7	3	10	22	0.0	1007.7	875	0.000	9.1
20110605 13:10	24.6	24.6	25.7	59	16.1	5	8	45	0.0	1007.7	865	0.000	9.0
20110605 13:15	24.8	24.8	25.8	56	15.4	3	10	45	0.0	1007.5	882	0.000	9.2
20110605 13:20	24.7	24.7	25.7	56	15.3	3	8	45	0.0	1007.5	879	0.000	9.1
20110605 13:25	24.8	24.8	25.8	54	14.9	5	8	292	0.0	1007.6	878	0.000	9.1
20110605 13:30	25.0	25.0	25.9	53	14.7	3	8	292	0.0	1007.5	882	0.000	9.2
20110605 13:35	25.3	25.3	26.2	54	15.3	3	10	292	0.0	1007.4	876	0.000	9.0
20110605 13:40	25.6	25.6	26.3	52	15.0	3	8	315	0.0	1007.4	877	0.000	9.0
20110605 13:45	25.7	25.7	26.3	51	14.8	5	16	315	0.0	1007.3	879	0.000	9.0
20110605 13:50	25.9	25.9	26.6	53	15.6	2	6	292	0.0	1006.9	887	0.000	9.0
20110605 13:55	25.9	25.9	26.5	50	14.7	5	11	22	0.0	1006.9	851	0.000	8.7
20110605 14:00	25.8	25.8	26.4	50	14.6	6	11	22	0.0	1007.0	766	0.559	7.9
20110605 14:05	25.4	25.4	26.2	52	14.8	6	11	45	0.0	1007.0	536	0.000	5.9
20110605 14:10	25.2	25.2	26.0	53	14.9	3	8	45	0.0	1007.1	605	0.000	6.5
20110605 14:15	25.2	25.2	26.0	50	14.0	3	8	45	0.0	1007.0	752	0.000	7.7
20110605 14:20	25.5	25.5	26.2	49	14.0	2	5	315	0.0	1006.8	876	0.000	8.6
20110605 14:25	25.7	25.7	26.2	47	13.5	5	8	45	0.0	1006.7	881	0.000	8.6
20110605 14:30	25.7	25.7	26.2	46	13.2	5	10	45	0.0	1006.6	863	0.000	8.4
20110605 14:35	25.8	25.8	26.3	46	13.3	6	10	68	0.0	1006.5	855	0.000	8.3
20110605 14:40	25.9	25.9	26.4	46	13.4	3	6	68	0.0	1006.5	849	0.000	8.2
20110605 14:45	25.9	25.9	26.4	46	13.4	2	5	68	0.0	1006.3	837	0.000	7.7
20110605 14:50	26.1	26.1	26.5	46	13.5	3	10	68	0.0	1006.3	829	0.000	7.8
20110605 14:55	25.9	25.9	26.3	44	12.7	2	5	68	0.0	1006.2	779	0.000	7.4
20110605 15:00	25.9	25.9	26.3	44	12.7	0	2	68	0.0	1006.2	807	0.533	7.5
20110605 15:05	26.3	26.3	26.6	45	13.4	2	5	68	0.0	1006.1	799	0.000	7.2
20110605 15:10	26.6	26.6	26.8	45	13.6	5	10	45	0.0	1006.0	804	0.000	7.3
20110605 15:15	26.3	26.3	26.6	44	13.1	2	6	0	0.0	1005.8	797	0.000	7.2
20110605 15:20	26.5	26.5	26.7	45	13.6	2	6	0	0.0	1005.8	788	0.000	7.0
20110605 15:25	26.7	26.7	26.9	45	13.8	3	8	68	0.0	1005.8	776	0.000	6.8
20110605 15:30	26.7	26.7	26.8	44	13.4	5	10	68	0.0	1005.7	767	0.000	6.6
20110605 15:35	26.7	26.7	26.9	46	14.1	2	5	90	0.0	1005.6	757	0.000	6.4
20110605 15:40	26.8	26.8	27.1	47	14.5	5	8	68	0.0	1005.6	750	0.000	6.3
20110605 15:45	26.9	26.9	27.1	46	14.3	6	11	22	0.0	1005.6	745	0.000	6.1
20110605 15:50	26.8	26.8	27.0	46	14.2	3	8	112	0.0	1005.5	739	0.000	5.9
20110605 15:55	26.8	26.8	27.0	46	14.2	3	10	112	0.0	1005.4	726	0.000	5.7
20110605 16:00	26.8	26.8	26.9	45	13.8	5	10	90	0.0	1005.4	707	0.533	5.4
20110605 16:05	26.7	26.7	27.0	47	14.4	6	10	68	0.0	1005.4	699	0.000	5.3
20110605 16:10	26.7	26.7	26.9	46	14.1	6	14	68	0.0	1005.4	688	0.000	5.1
20110605 16:15	26.6	26.6	27.0	48	14.7	5	10	45	0.0	1005.5	683	0.000	5.0
20110605 16:20	26.7	26.7	27.0	47	14.5	6	11	22	0.0	1005.5	666	0.000	4.6
20110605 16:25	26.8	26.8	27.2	49	15.2	2	6	22	0.0	1005.4	694	0.000	4.2
20110605 16:30	26.9	26.9	27.1	46	14.3	6	16	45	0.0	1005.4	678	0.000	4.4
20110605 16:35	26.7	26.7	27.0	46	14.1	6	16	68	0.0	1005.3	659	0.000	4.3
20110605 16:40	26.6	26.6	26.9	46	14.0	3	8	68	0.0	1005.3	633	0.000	4.2
20110605 16:45	26.7	26.7	27.0	48	14.7	3	10	68	0.0	1005.2	624	0.000	4.0
20110605 16:50	26.8	26.8	27.2	48	14.9	3	10	68	0.0	1005.1	613	0.000	3.7
20110605 16:55	26.8	26.8	27.2	49	15.2	6	10	90	0.0	1005.0	585	0.000	3.6
20110605 17:00	26.9	26.9	27.2	48	14.9	8	14	22	0.0	1005.0	575	0.457	3.4
20110605 17:05	26.9	26.9	27.2	47	14.7	6	11	45	0.0	1005.0	575	0.000	3.3
20110605 17:10	26.9	26.9	27.3	49	15.3	8	18	22	0.0	1005.1	553	0.000	3.2
20110605 17:15	26.7	26.7	27.1	49	15.1	8	14	22	0.0	1005.1	534	0.000	3.0
20110605 17:20	26.7	26.7	27.1	48	14.8	6	11	45	0.0	1005.1	502	0.000	2.9
20110605 17:25	26.8	26.8	27.2	48	14.9	8	18	45	0.0	1005.0	513	0.000	2.8
20110605 17:30	26.8	26.8	27.1	47	14.5	8	13	22	0.0	1005.0	508	0.000	2.7
20110605 17:35	26.8	26.8	27.1	47	14.5	10	16	45	0.0	1005.0	487	0.000	2.5
20110605 17:40	26.8	26.8	27.2	49	15.2	5	11	22	0.0	1004.7	463	0.000	2.3
20110605 17:45	26.7	26.7	27.0	47	14.5	11	19	22	0.0	1004.6	422	0.000	2.2
20110605 17:50	26.6	26.6	26.9	47	14.3	8	16	45	0.0	1004.5	460	0.000	2.2
20110605 17:55	26.7	26.7	27.0	47	14.4	6	16	22	0.0	1004.5	450	0.000	2.0
20110605 18:00	26.7	26.7	27.0	48	14.7	6	14	45	0.0	1004.3	440	0.381	1.9
20110605 18:05	26.7	26.7	27.0	47	14.5	6	10	68	0.0	1003.9	423	0.000	1.8
20110605 18:10	26.7	26.7	27.1	49	15.1	6	10	22	0.0	1003.9	358	0.000	1.6
20110605 18:15	26.6	26.6	26.9	48	14.6	6	11	68	0.0	1003.9	326	0.000	1.4
20110605 18:20	26.4	26.4	26.8	49	14.8	8	16	45	0.0	1003.8	365	0.000	1.4
20110605 18:25	26.2	26.2	26.7	48	14.3	8	14	45	0.0	1003.9	335	0.000	1.3
20110605 18:30	26.1	26.1	26.6	49	14.5	8	13	45	0.0	1003.8	300	0.000	1.2
20110605 18:35	26.0	26.0	26.6	50	14.8	6	13	22	0.0	1003.8	228	0.000	1.0
20110605 18:40	25.9	25.9	26.5	49	14.4	8	16	45	0.0	1003.8	280	0.000	1.0
20110605 18:45	25.9	25.9	26.5	50	14.7	8	14	45	0.0	1003.9	295	0.000	1.0
20110605 18:50	25.8	25.8	26.4	50	14.6	8	14	22	0.0	1004.0	305	0.000	0.9
20110605 18:55	25.8	25.8	26.4	49	14.3	8	14	45	0.0	1004.0	286	0.000	0.9
20110605 19:00	25.8	25.8	26.4	49	14.3	8	14	45	0.0	1004.0	270	0.279	0.8
20110605 19:05	25.8	25.8	26.4	49	14.3	6	11	22	0.0	1003.8	256	0.000	0.7
20110605 19:10	25.7	25.7	26.3	48	13.9	10	18	22	0.0	1003.9	243	0.000	0.7
20110605 19:15	25.7	25.7	26.3	49	14.1	6	10	45	0.0	1003.8	226	0.000	0.6
20110605 19:20	25.6	25.6	26.3	51	14.7	5	10	45	0.0	1003.8	110	0.000	0.5
20110605 19:25	25.4	25.4	26.2	52	14.8	3	8	68	0.0	1003.8	64	0.000	0.5
20110605 19:30	25.3	25.3	26.1	53	15.0	5	11	68	0.0	1003.8	60	0.000	0.1
20110605 19:35	25.2	25.2	26.1	54	15.2	6	10	68	0.0	1003.9	57	0.000	0.0
20110605 19:40	25.1	25.1	26.0	55	15.4	3	8	45	0.0	1003.7	52	0.000	0.0
20110605 19:45	24.8	24.8	25.8	55	15.2	5	8	68	0.0	1003.6	38	0.000	0.0
20110605 19:50	24.6	24.6	25.7	55	15.0	3	8	45	0.0	1003.6	27	0.000	0.0
20110605 19:55	24.4	24.4	25.6	56	15.0	3	8	45	0.0	1003.6	24	0.000	0.0
20110605 20:00	24.2	24.2	25.4	56	14.8	2	6	45	0.0	1003.8	21	0.102	0.0
20110605 20:05	24.0	24.0	25.3	57	14.9	0	3	45	0.0	1003.9	18	0.000	0.0
20110605 20:10	23.9	23.9	25.2	58	15.1	0	2	45	0.0	1003.9	18	0.000	0.0
20110605 20:15	23.8	23.8	23.8	59	15.3	0	2	45	0.0	1004.0	15	0.000	0.0
20110605 20:20	23.7	23.7	23.7	60	15.4	0	2	45	0.0	1004.0	14	0.000	0.0
20110605 20:25	23.6	23.6	23.6	61	15.6	0	2	45	0.0	1003.9	12	0.000	0.0
20110605 20:30	23.4	23.4	23.4	62	15.7	0	0	-100000	0.0	1004.0	12	0.000	0.0
20110605 20:35	23.3	23.3	23.3	63	15.8	0	2	112	0.0	1004.0	10	0.000	0.0
20110605 20:40	23.1	23.1	23.1	63	15.7	0	2	22	0.0	1003.9	9	0.000	0.0
20110605 20:45	23.0	23.0	23.0	62	15.3	0	2	22	0.0	1004.1	7	0.000	0.0
20110605 20:50	22.9	22.9	22.9	61	15.0	0	0	-100000	0.0	1004.2	3	0.000	0.0
20110605 20:55	22.8	22.8	22.8	62	15.2	0	2	22	0.0	1004.3	0	0.000	0.0
20110605 21:00	22.7	22.7	22.7	62	15.1	13	31	225	0.0	1004.5	0	0.025	0.0
20110605 21:05	22.1	22.1	22.1	58	13.5	13	23	248	0.0	1004.8	0	0.000	0.0
20110605 21:10	21.5	21.5	21.5	59	13.1	16	29	248	0.0	1005.0	0	0.000	0.0
20110605 21:15	21.0	21.0	21.0	60	12.9	24	42	248	0.0	1005.2	0	0.000	0.0
20110605 21:20	20.3	20.3	20.3	63	13.0	19	37	248	0.0	1005.1	0	0.000	0.0
20110605 21:25	19.8	19.8	19.8	61	12.1	19	35	270	0.0	1005.4	0	0.000	0.0
20110605 21:30	19.6	19.6	19.6	59	11.4	19	32	270	0.0	1005.4	0	0.000	0.0
20110605 21:35	19.3	19.3	19.3	59	11.1	18	39	270	0.0	1005.5	0	0.000	0.0
20110605 21:40	19.3	19.3	19.3	61	11.6	11	21	270	0.0	1005.3	0	0.000	0.0
20110605 21:45	19.2	19.2	19.2	59	11.0	10	18	248	0.0	1005.2	0	0.000	0.0
20110605 21:50	19.3	19.3	19.3	58	10.9	13	26	270	0.0	1005.4	0	0.000	0.0
20110605 21:55	19.4	19.4	19.4	58	11.0	10	21	270	0.0	1005.7	0	0.000	0.0
20110605 22:00	19.4	19.4	19.4	60	11.5	5	14	292	0.0	1005.6	0	0.102	0.0
20110605 22:05	19.4	19.4	19.4	61	11.7	3	8	315	0.0	1005.9	0	0.000	0.0
20110605 22:10	19.2	19.2	19.2	64	12.2	10	26	135	0.0	1006.3	0	0.000	0.0
20110605 22:15	18.6	18.6	18.6	68	12.6	11	23	135	0.0	1006.6	-100000	0.000	0.0
20110605 22:25	17.9	17.9	17.9	74	13.2	3	10	180	0.0	1006.8	-100000	0.000	0.0
20110605 22:30	17.5	17.5	17.5	75	13.0	2	6	135	0.0	1006.4	0	0.000	0.0
20110605 22:35	17.2	17.2	17.2	77	13.2	0	3	90	0.0	1006.4	0	0.000	0.0
20110605 22:40	17.1	17.1	17.1	80	13.6	0	2	90	0.0	1006.1	0	0.000	0.0
20110605 22:45	17.0	17.0	17.0	79	13.3	2	5	90	0.0	1006.0	0	0.000	0.0
20110605 22:50	16.9	16.9	16.9	79	13.3	0	3	315	0.0	1005.7	0	0.000	0.0
20110605 22:55	16.9	16.9	16.9	78	13.0	0	2	315	0.0	1005.7	0	0.000	0.0
20110605 23:00	16.9	16.9	16.9	78	13.1	0	0	-100000	0.0	1005.5	0	0.025	0.0
20110605 23:05	16.9	16.9	16.9	77	12.9	0	3	315	0.0	1005.1	0	0.000	0.0
20110605 23:10	16.9	16.9	16.9	77	12.9	3	10	68	0.0	1005.0	0	0.000	0.0
20110605 23:15	16.8	16.8	16.8	78	13.0	5	8	68	0.0	1005.0	0	0.000	0.0
20110605 23:20	16.8	16.8	16.8	77	12.7	3	6	68	0.0	1004.9	0	0.000	0.0
20110605 23:25	16.8	16.8	16.8	77	12.7	3	6	68	0.0	1004.9	0	0.000	0.0
20110605 23:30	16.7	16.7	16.7	77	12.7	0	5	68	0.0	1004.9	0	0.000	0.0
20110605 23:35	16.7	16.7	16.7	79	13.1	2	6	68	0.0	1004.9	0	0.000	0.0
20110605 23:40	16.6	16.6	16.6	80	13.1	3	8	158	0.0	1004.9	0	0.000	0.0
20110605 23:45	16.5	16.5	16.5	80	13.0	2	6	158	0.0	1004.9	0	0.000	0.0
20110605 23:50	16.4	16.4	16.4	81	13.1	6	11	202	0.0	1005.0	0	0.000	0.0
20110605 23:55	16.2	16.2	16.2	82	13.1	6	11	180	0.0	1005.1	0	0.000	0.0



Please note the license to use and transfer of this data:
http://creativecommons.org/licenses/by-nc-sa/3.0/deed.en

Bitte beachten sie die Lizenz zur Verwertung und Weitergabe der Daten:
http://creativecommons.org/licenses/by-nc-sa/3.0/deed.de

zurück zur Übersicht der Archivdaten (Monats und Tagesdaten)

Cookies helfen bei der Bereitstellung von Inhalten. Durch die Nutzung dieser Seiten erklärst du dich damit einverstanden, dass Cookies auf deinem Rechner gespeichert werden. Weitere Information